sensor_id;sensor_type;location;lat;lon;timestamp;pressure;altitude;pressure_sealevel;temperature;humidity
68855;BME280;69984;-43.570;172.580;2023-08-24T00:01:59;102367.53;;;14.99;59.46
68855;BME280;69984;-43.570;172.580;2023-08-24T00:04:26;102360.91;;;15.14;59.58
68855;BME280;69984;-43.570;172.580;2023-08-24T00:06:55;102362.41;;;15.47;59.54
68855;BME280;69984;-43.570;172.580;2023-08-24T00:09:22;102360.41;;;15.30;58.81
68855;BME280;69984;-43.570;172.580;2023-08-24T00:11:49;102365.66;;;15.70;57.79
68855;BME280;69984;-43.570;172.580;2023-08-24T00:14:16;102356.47;;;15.55;58.41
68855;BME280;69984;-43.570;172.580;2023-08-24T00:16:43;102355.81;;;15.32;60.83
68855;BME280;69984;-43.570;172.580;2023-08-24T00:19:10;102359.28;;;15.72;58.21
68855;BME280;69984;-43.570;172.580;2023-08-24T00:21:37;102360.78;;;16.32;57.14
68855;BME280;69984;-43.570;172.580;2023-08-24T00:24:05;102358.31;;;15.92;57.16
68855;BME280;69984;-43.570;172.580;2023-08-24T00:26:32;102357.88;;;16.07;56.59
68855;BME280;69984;-43.570;172.580;2023-08-24T00:28:59;102346.75;;;16.69;55.56
68855;BME280;69984;-43.570;172.580;2023-08-24T00:31:26;102346.44;;;16.81;56.08
68855;BME280;69984;-43.570;172.580;2023-08-24T00:33:53;102350.75;;;16.26;57.18
68855;BME280;69984;-43.570;172.580;2023-08-24T00:36:20;102349.63;;;16.38;56.14
68855;BME280;69984;-43.570;172.580;2023-08-24T00:38:49;102344.25;;;16.11;55.85
68855;BME280;69984;-43.570;172.580;2023-08-24T00:41:17;102346.97;;;16.38;56.54
68855;BME280;69984;-43.570;172.580;2023-08-24T00:43:45;102338.41;;;16.73;56.36
68855;BME280;69984;-43.570;172.580;2023-08-24T00:46:13;102342.63;;;17.21;54.14
68855;BME280;69984;-43.570;172.580;2023-08-24T00:48:40;102336.03;;;17.52;53.64
68855;BME280;69984;-43.570;172.580;2023-08-24T00:51:07;102337.75;;;17.43;51.58
68855;BME280;69984;-43.570;172.580;2023-08-24T00:53:35;102324.44;;;17.88;51.84
68855;BME280;69984;-43.570;172.580;2023-08-24T00:56:04;102330.31;;;17.29;53.11
68855;BME280;69984;-43.570;172.580;2023-08-24T00:58:32;102317.09;;;16.65;54.42
68855;BME280;69984;-43.570;172.580;2023-08-24T01:01:00;102312.94;;;16.43;54.92
68855;BME280;69984;-43.570;172.580;2023-08-24T01:03:27;102321.09;;;16.23;55.21
68855;BME280;69984;-43.570;172.580;2023-08-24T01:05:54;102317.00;;;17.12;53.10
68855;BME280;69984;-43.570;172.580;2023-08-24T01:08:22;102311.47;;;17.05;51.76
68855;BME280;69984;-43.570;172.580;2023-08-24T01:11:28;102309.09;;;16.84;53.68
68855;BME280;69984;-43.570;172.580;2023-08-24T01:16:36;102313.06;;;16.71;54.54
68855;BME280;69984;-43.570;172.580;2023-08-24T01:19:18;102315.13;;;17.22;53.99
68855;BME280;69984;-43.570;172.580;2023-08-24T01:21:48;102303.50;;;16.41;53.60
68855;BME280;69984;-43.570;172.580;2023-08-24T01:24:30;102311.38;;;16.70;54.09
68855;BME280;69984;-43.570;172.580;2023-08-24T01:26:59;102301.56;;;16.80;53.52
68855;BME280;69984;-43.570;172.580;2023-08-24T01:29:27;102308.66;;;16.33;53.77
68855;BME280;69984;-43.570;172.580;2023-08-24T01:31:55;102306.88;;;16.24;54.69
68855;BME280;69984;-43.570;172.580;2023-08-24T01:34:22;102310.56;;;16.60;53.28
68855;BME280;69984;-43.570;172.580;2023-08-24T01:36:49;102306.00;;;16.33;54.52
68855;BME280;69984;-43.570;172.580;2023-08-24T01:39:31;102305.03;;;16.34;54.37
68855;BME280;69984;-43.570;172.580;2023-08-24T01:42:03;102303.03;;;16.55;53.21
68855;BME280;69984;-43.570;172.580;2023-08-24T01:44:37;102300.28;;;16.57;53.70
68855;BME280;69984;-43.570;172.580;2023-08-24T01:47:08;102306.00;;;16.33;54.15
68855;BME280;69984;-43.570;172.580;2023-08-24T01:49:38;102298.41;;;16.20;55.11
68855;BME280;69984;-43.570;172.580;2023-08-24T01:52:05;102302.88;;;15.91;55.55
68855;BME280;69984;-43.570;172.580;2023-08-24T01:54:33;102300.13;;;15.92;54.75
68855;BME280;69984;-43.570;172.580;2023-08-24T01:57:01;102307.38;;;15.71;55.26
68855;BME280;69984;-43.570;172.580;2023-08-24T01:59:28;102310.41;;;15.95;56.00
68855;BME280;69984;-43.570;172.580;2023-08-24T02:01:56;102315.44;;;15.89;54.09
68855;BME280;69984;-43.570;172.580;2023-08-24T02:04:23;102316.41;;;15.88;55.16
68855;BME280;69984;-43.570;172.580;2023-08-24T02:06:50;102304.34;;;16.41;55.32
68855;BME280;69984;-43.570;172.580;2023-08-24T02:09:17;102318.19;;;15.87;57.56
68855;BME280;69984;-43.570;172.580;2023-08-24T02:11:44;102319.88;;;15.69;57.06
68855;BME280;69984;-43.570;172.580;2023-08-24T02:14:11;102321.41;;;15.62;56.41
68855;BME280;69984;-43.570;172.580;2023-08-24T02:16:38;102321.69;;;15.78;56.93
68855;BME280;69984;-43.570;172.580;2023-08-24T02:19:05;102311.94;;;15.60;56.34
68855;BME280;69984;-43.570;172.580;2023-08-24T02:21:36;102308.72;;;15.46;56.79
68855;BME280;69984;-43.570;172.580;2023-08-24T02:24:04;102319.69;;;15.42;57.41
68855;BME280;69984;-43.570;172.580;2023-08-24T02:26:31;102322.25;;;15.53;57.82
68855;BME280;69984;-43.570;172.580;2023-08-24T02:28:59;102318.72;;;15.43;57.17
68855;BME280;69984;-43.570;172.580;2023-08-24T02:31:26;102322.47;;;15.40;57.29
68855;BME280;69984;-43.570;172.580;2023-08-24T02:33:53;102321.38;;;15.43;57.39
68855;BME280;69984;-43.570;172.580;2023-08-24T02:36:21;102315.03;;;15.65;57.65
68855;BME280;69984;-43.570;172.580;2023-08-24T02:38:48;102321.25;;;15.73;56.76
68855;BME280;69984;-43.570;172.580;2023-08-24T02:41:15;102316.66;;;15.66;57.62
68855;BME280;69984;-43.570;172.580;2023-08-24T02:43:42;102323.06;;;15.92;56.71
68855;BME280;69984;-43.570;172.580;2023-08-24T02:46:09;102319.88;;;16.08;55.86
68855;BME280;69984;-43.570;172.580;2023-08-24T02:48:36;102322.16;;;16.49;55.10
68855;BME280;69984;-43.570;172.580;2023-08-24T02:51:04;102318.44;;;16.32;55.40
68855;BME280;69984;-43.570;172.580;2023-08-24T02:53:32;102320.16;;;15.95;56.21
68855;BME280;69984;-43.570;172.580;2023-08-24T02:56:00;102332.69;;;15.93;56.28
68855;BME280;69984;-43.570;172.580;2023-08-24T02:58:27;102326.97;;;15.97;55.41
68855;BME280;69984;-43.570;172.580;2023-08-24T03:00:56;102331.41;;;16.16;54.98
68855;BME280;69984;-43.570;172.580;2023-08-24T03:03:26;102322.69;;;16.62;55.21
68855;BME280;69984;-43.570;172.580;2023-08-24T03:05:59;102324.16;;;16.28;55.91
68855;BME280;69984;-43.570;172.580;2023-08-24T03:08:28;102329.34;;;15.91;55.81
68855;BME280;69984;-43.570;172.580;2023-08-24T03:10:55;102318.31;;;15.47;56.27
68855;BME280;69984;-43.570;172.580;2023-08-24T03:13:22;102330.75;;;15.85;56.21
68855;BME280;69984;-43.570;172.580;2023-08-24T03:15:49;102321.97;;;15.66;56.26
68855;BME280;69984;-43.570;172.580;2023-08-24T03:18:18;102323.34;;;15.51;57.19
68855;BME280;69984;-43.570;172.580;2023-08-24T03:20:47;102327.09;;;15.48;56.11
68855;BME280;69984;-43.570;172.580;2023-08-24T03:23:17;102330.25;;;15.32;56.78
68855;BME280;69984;-43.570;172.580;2023-08-24T03:25:44;102333.22;;;15.87;56.41
68855;BME280;69984;-43.570;172.580;2023-08-24T03:28:12;102331.41;;;16.16;55.64
68855;BME280;69984;-43.570;172.580;2023-08-24T03:30:45;102338.38;;;15.50;58.62
68855;BME280;69984;-43.570;172.580;2023-08-24T03:33:12;102342.69;;;15.99;57.12
68855;BME280;69984;-43.570;172.580;2023-08-24T03:35:40;102342.69;;;15.99;56.71
68855;BME280;69984;-43.570;172.580;2023-08-24T03:38:07;102342.44;;;15.83;56.46
68855;BME280;69984;-43.570;172.580;2023-08-24T03:40:35;102348.91;;;15.40;58.45
68855;BME280;69984;-43.570;172.580;2023-08-24T03:43:03;102356.03;;;15.49;57.72
68855;BME280;69984;-43.570;172.580;2023-08-24T03:45:30;102350.31;;;15.44;57.15
68855;BME280;69984;-43.570;172.580;2023-08-24T03:47:57;102351.91;;;15.76;56.00
68855;BME280;69984;-43.570;172.580;2023-08-24T03:50:25;102354.47;;;15.47;56.10
68855;BME280;69984;-43.570;172.580;2023-08-24T03:52:53;102345.50;;;15.88;56.34
68855;BME280;69984;-43.570;172.580;2023-08-24T03:55:21;102353.56;;;15.96;55.79
68855;BME280;69984;-43.570;172.580;2023-08-24T03:57:49;102347.50;;;15.46;57.03
68855;BME280;69984;-43.570;172.580;2023-08-24T04:00:16;102354.41;;;15.18;58.11
68855;BME280;69984;-43.570;172.580;2023-08-24T04:02:44;102352.69;;;14.98;58.72
68855;BME280;69984;-43.570;172.580;2023-08-24T04:05:12;102349.06;;;14.69;59.34
68855;BME280;69984;-43.570;172.580;2023-08-24T04:07:39;102354.25;;;14.80;60.00
68855;BME280;69984;-43.570;172.580;2023-08-24T04:10:08;102356.91;;;14.80;59.39
68855;BME280;69984;-43.570;172.580;2023-08-24T04:12:35;102358.59;;;14.81;59.57
68855;BME280;69984;-43.570;172.580;2023-08-24T04:15:02;102348.84;;;14.51;60.91
68855;BME280;69984;-43.570;172.580;2023-08-24T04:17:30;102354.16;;;14.61;59.99
68855;BME280;69984;-43.570;172.580;2023-08-24T04:19:58;102349.22;;;14.46;59.70
68855;BME280;69984;-43.570;172.580;2023-08-24T04:22:25;102353.72;;;14.56;60.34
68855;BME280;69984;-43.570;172.580;2023-08-24T04:24:52;102359.81;;;14.77;59.38
68855;BME280;69984;-43.570;172.580;2023-08-24T04:27:19;102358.50;;;14.71;59.03
68855;BME280;69984;-43.570;172.580;2023-08-24T04:29:48;102360.16;;;14.63;59.70
68855;BME280;69984;-43.570;172.580;2023-08-24T04:32:15;102364.63;;;14.30;61.32
68855;BME280;69984;-43.570;172.580;2023-08-24T04:34:42;102363.47;;;14.02;62.12
68855;BME280;69984;-43.570;172.580;2023-08-24T04:37:09;102366.16;;;14.44;61.39
68855;BME280;69984;-43.570;172.580;2023-08-24T04:39:36;102363.00;;;14.18;61.74
68855;BME280;69984;-43.570;172.580;2023-08-24T04:42:03;102358.13;;;14.45;61.24
68855;BME280;69984;-43.570;172.580;2023-08-24T04:44:31;102362.13;;;14.49;61.49
68855;BME280;69984;-43.570;172.580;2023-08-24T04:46:59;102371.50;;;14.22;61.42
68855;BME280;69984;-43.570;172.580;2023-08-24T04:49:26;102371.91;;;13.96;62.10
68855;BME280;69984;-43.570;172.580;2023-08-24T04:51:54;102387.84;;;14.16;62.15
68855;BME280;69984;-43.570;172.580;2023-08-24T04:54:22;102386.47;;;14.00;61.55
68855;BME280;69984;-43.570;172.580;2023-08-24T04:56:49;102387.81;;;14.27;61.46
68855;BME280;69984;-43.570;172.580;2023-08-24T04:59:16;102388.38;;;13.78;62.60
68855;BME280;69984;-43.570;172.580;2023-08-24T05:01:43;102398.84;;;14.00;63.12
68855;BME280;69984;-43.570;172.580;2023-08-24T05:04:10;102394.94;;;13.83;62.67
68855;BME280;69984;-43.570;172.580;2023-08-24T05:06:37;102395.50;;;13.87;62.45
68855;BME280;69984;-43.570;172.580;2023-08-24T05:09:04;102397.44;;;13.31;63.69
68855;BME280;69984;-43.570;172.580;2023-08-24T05:11:31;102400.06;;;13.20;64.59
68855;BME280;69984;-43.570;172.580;2023-08-24T05:13:58;102400.16;;;12.85;65.43
68855;BME280;69984;-43.570;172.580;2023-08-24T05:16:25;102401.25;;;12.82;65.21
68855;BME280;69984;-43.570;172.580;2023-08-24T05:18:54;102411.44;;;13.20;64.41
68855;BME280;69984;-43.570;172.580;2023-08-24T05:21:21;102412.78;;;13.26;64.05
68855;BME280;69984;-43.570;172.580;2023-08-24T05:23:48;102416.19;;;13.60;62.91
68855;BME280;69984;-43.570;172.580;2023-08-24T05:26:15;102422.75;;;13.76;62.21
68855;BME280;69984;-43.570;172.580;2023-08-24T05:28:48;102424.34;;;13.68;62.16
68855;BME280;69984;-43.570;172.580;2023-08-24T05:31:16;102425.56;;;13.41;62.73
68855;BME280;69984;-43.570;172.580;2023-08-24T05:33:43;102426.28;;;13.10;63.75
68855;BME280;69984;-43.570;172.580;2023-08-24T05:36:10;102425.19;;;13.01;64.07
68855;BME280;69984;-43.570;172.580;2023-08-24T05:38:38;102418.56;;;12.85;64.85
68855;BME280;69984;-43.570;172.580;2023-08-24T05:41:11;102428.72;;;12.32;66.22
68855;BME280;69984;-43.570;172.580;2023-08-24T05:43:38;102429.25;;;12.37;66.91
68855;BME280;69984;-43.570;172.580;2023-08-24T05:46:05;102433.03;;;12.68;65.42
68855;BME280;69984;-43.570;172.580;2023-08-24T05:48:32;102437.09;;;12.72;64.71
68855;BME280;69984;-43.570;172.580;2023-08-24T05:50:59;102429.13;;;12.39;65.70
68855;BME280;69984;-43.570;172.580;2023-08-24T05:53:26;102438.53;;;12.30;66.49
68855;BME280;69984;-43.570;172.580;2023-08-24T05:55:57;102436.56;;;12.45;64.87
68855;BME280;69984;-43.570;172.580;2023-08-24T05:58:25;102434.66;;;12.47;65.92
68855;BME280;69984;-43.570;172.580;2023-08-24T06:00:59;102436.03;;;12.75;63.68
68855;BME280;69984;-43.570;172.580;2023-08-24T06:03:26;102436.53;;;12.80;63.15
68855;BME280;69984;-43.570;172.580;2023-08-24T06:06:01;102440.56;;;12.62;64.63
68855;BME280;69984;-43.570;172.580;2023-08-24T06:08:29;102447.72;;;12.71;64.43
68855;BME280;69984;-43.570;172.580;2023-08-24T06:10:57;102443.16;;;12.50;64.93
68855;BME280;69984;-43.570;172.580;2023-08-24T06:13:25;102448.25;;;12.41;65.12
68855;BME280;69984;-43.570;172.580;2023-08-24T06:15:52;102456.81;;;12.32;66.02
68855;BME280;69984;-43.570;172.580;2023-08-24T06:18:20;102447.31;;;12.53;63.83
68855;BME280;69984;-43.570;172.580;2023-08-24T06:20:47;102455.38;;;12.28;64.36
68855;BME280;69984;-43.570;172.580;2023-08-24T06:23:17;102453.38;;;12.31;65.16
68855;BME280;69984;-43.570;172.580;2023-08-24T06:25:46;102453.47;;;12.30;64.68
68855;BME280;69984;-43.570;172.580;2023-08-24T06:28:13;102455.59;;;12.25;65.72
68855;BME280;69984;-43.570;172.580;2023-08-24T06:30:41;102456.72;;;12.33;65.16
68855;BME280;69984;-43.570;172.580;2023-08-24T06:33:09;102462.06;;;12.32;65.07
68855;BME280;69984;-43.570;172.580;2023-08-24T06:35:40;102459.81;;;12.27;64.94
68855;BME280;69984;-43.570;172.580;2023-08-24T06:38:07;102461.47;;;12.05;66.86
68855;BME280;69984;-43.570;172.580;2023-08-24T06:40:35;102459.13;;;12.13;67.62
68855;BME280;69984;-43.570;172.580;2023-08-24T06:45:37;102471.78;;;12.31;65.00
68855;BME280;69984;-43.570;172.580;2023-08-24T06:48:05;102464.66;;;12.44;65.26
68855;BME280;69984;-43.570;172.580;2023-08-24T06:50:33;102474.75;;;12.62;64.69
68855;BME280;69984;-43.570;172.580;2023-08-24T06:53:03;102473.34;;;12.69;65.09
68855;BME280;69984;-43.570;172.580;2023-08-24T06:55:31;102474.03;;;12.71;64.92
68855;BME280;69984;-43.570;172.580;2023-08-24T06:57:58;102482.91;;;12.81;64.70
68855;BME280;69984;-43.570;172.580;2023-08-24T07:00:25;102477.78;;;12.79;64.51
68855;BME280;69984;-43.570;172.580;2023-08-24T07:02:52;102480.34;;;12.57;65.53
68855;BME280;69984;-43.570;172.580;2023-08-24T07:05:20;102475.53;;;12.51;65.55
68855;BME280;69984;-43.570;172.580;2023-08-24T07:07:47;102481.69;;;12.39;67.23
68855;BME280;69984;-43.570;172.580;2023-08-24T07:10:15;102484.91;;;12.31;68.03
68855;BME280;69984;-43.570;172.580;2023-08-24T07:12:43;102474.75;;;12.03;68.73
68855;BME280;69984;-43.570;172.580;2023-08-24T07:15:14;102485.66;;;12.10;68.80
68855;BME280;69984;-43.570;172.580;2023-08-24T07:17:41;102496.59;;;12.03;68.94
68855;BME280;69984;-43.570;172.580;2023-08-24T07:20:09;102486.03;;;11.92;69.08
68855;BME280;69984;-43.570;172.580;2023-08-24T07:22:37;102487.59;;;11.82;69.64
68855;BME280;69984;-43.570;172.580;2023-08-24T07:25:05;102490.47;;;11.79;69.48
68855;BME280;69984;-43.570;172.580;2023-08-24T07:27:33;102486.03;;;11.80;69.59
68855;BME280;69984;-43.570;172.580;2023-08-24T07:30:00;102492.78;;;11.84;69.88
68855;BME280;69984;-43.570;172.580;2023-08-24T07:32:32;102493.94;;;11.80;69.98
68855;BME280;69984;-43.570;172.580;2023-08-24T07:34:59;102496.34;;;11.83;69.79
68855;BME280;69984;-43.570;172.580;2023-08-24T07:37:27;102502.66;;;11.68;70.31
68855;BME280;69984;-43.570;172.580;2023-08-24T07:39:54;102504.75;;;11.63;70.63
68855;BME280;69984;-43.570;172.580;2023-08-24T07:42:21;102506.31;;;11.65;70.28
68855;BME280;69984;-43.570;172.580;2023-08-24T07:44:49;102507.06;;;11.67;70.12
68855;BME280;69984;-43.570;172.580;2023-08-24T07:47:17;102506.66;;;11.61;69.97
68855;BME280;69984;-43.570;172.580;2023-08-24T07:49:44;102505.81;;;11.47;70.09
68855;BME280;69984;-43.570;172.580;2023-08-24T07:52:11;102509.41;;;11.46;69.83
68855;BME280;69984;-43.570;172.580;2023-08-24T07:54:39;102508.13;;;11.52;69.90
68855;BME280;69984;-43.570;172.580;2023-08-24T07:57:06;102514.78;;;11.07;70.69
68855;BME280;69984;-43.570;172.580;2023-08-24T07:59:33;102511.81;;;10.99;71.61
68855;BME280;69984;-43.570;172.580;2023-08-24T08:02:00;102513.59;;;10.98;71.96
68855;BME280;69984;-43.570;172.580;2023-08-24T08:04:27;102510.06;;;11.25;71.61
68855;BME280;69984;-43.570;172.580;2023-08-24T08:06:55;102512.69;;;11.25;70.61
68855;BME280;69984;-43.570;172.580;2023-08-24T08:09:22;102514.56;;;11.35;70.53
68855;BME280;69984;-43.570;172.580;2023-08-24T08:11:49;102522.22;;;11.13;71.02
68855;BME280;69984;-43.570;172.580;2023-08-24T08:14:16;102524.88;;;11.26;70.94
68855;BME280;69984;-43.570;172.580;2023-08-24T08:16:44;102518.44;;;11.42;70.07
68855;BME280;69984;-43.570;172.580;2023-08-24T08:19:11;102527.59;;;11.24;70.92
68855;BME280;69984;-43.570;172.580;2023-08-24T08:21:38;102519.06;;;11.46;69.89
68855;BME280;69984;-43.570;172.580;2023-08-24T08:24:05;102523.25;;;11.61;68.89
68855;BME280;69984;-43.570;172.580;2023-08-24T08:26:32;102525.28;;;11.32;69.11
68855;BME280;69984;-43.570;172.580;2023-08-24T08:28:59;102523.78;;;11.41;69.83
68855;BME280;69984;-43.570;172.580;2023-08-24T08:31:27;102524.72;;;11.40;69.63
68855;BME280;69984;-43.570;172.580;2023-08-24T08:33:54;102531.56;;;11.17;69.88
68855;BME280;69984;-43.570;172.580;2023-08-24T08:36:21;102533.56;;;11.39;69.83
68855;BME280;69984;-43.570;172.580;2023-08-24T08:38:48;102537.13;;;11.13;70.84
68855;BME280;69984;-43.570;172.580;2023-08-24T08:41:15;102544.56;;;10.93;71.67
68855;BME280;69984;-43.570;172.580;2023-08-24T08:43:44;102539.47;;;10.78;72.26
68855;BME280;69984;-43.570;172.580;2023-08-24T08:46:11;102553.16;;;10.83;72.91
68855;BME280;69984;-43.570;172.580;2023-08-24T08:48:39;102545.50;;;10.92;72.09
68855;BME280;69984;-43.570;172.580;2023-08-24T08:51:08;102549.25;;;10.88;72.18
68855;BME280;69984;-43.570;172.580;2023-08-24T08:53:37;102545.94;;;10.99;72.17
68855;BME280;69984;-43.570;172.580;2023-08-24T08:56:04;102543.44;;;10.97;72.27
68855;BME280;69984;-43.570;172.580;2023-08-24T08:58:34;102544.78;;;11.16;71.11
68855;BME280;69984;-43.570;172.580;2023-08-24T09:01:05;102553.25;;;10.81;71.90
68855;BME280;69984;-43.570;172.580;2023-08-24T09:03:34;102546.06;;;10.71;72.50
68855;BME280;69984;-43.570;172.580;2023-08-24T09:06:03;102547.72;;;10.59;73.17
68855;BME280;69984;-43.570;172.580;2023-08-24T09:08:30;102540.78;;;10.31;74.15
68855;BME280;69984;-43.570;172.580;2023-08-24T09:11:01;102546.84;;;10.46;73.22
68855;BME280;69984;-43.570;172.580;2023-08-24T09:13:29;102542.63;;;10.43;73.76
68855;BME280;69984;-43.570;172.580;2023-08-24T09:16:07;102545.06;;;10.46;73.01
68855;BME280;69984;-43.570;172.580;2023-08-24T09:18:37;102555.34;;;10.49;72.84
68855;BME280;69984;-43.570;172.580;2023-08-24T09:21:12;102550.25;;;10.34;72.55
68855;BME280;69984;-43.570;172.580;2023-08-24T09:23:59;102554.50;;;10.22;73.30
68855;BME280;69984;-43.570;172.580;2023-08-24T09:26:30;102553.75;;;10.06;73.51
68855;BME280;69984;-43.570;172.580;2023-08-24T09:28:58;102547.03;;;10.02;73.15
68855;BME280;69984;-43.570;172.580;2023-08-24T09:31:36;102550.38;;;10.04;72.95
68855;BME280;69984;-43.570;172.580;2023-08-24T09:34:07;102560.88;;;9.90;73.48
68855;BME280;69984;-43.570;172.580;2023-08-24T09:36:34;102551.44;;;10.01;72.79
68855;BME280;69984;-43.570;172.580;2023-08-24T09:39:03;102559.56;;;9.83;73.09
68855;BME280;69984;-43.570;172.580;2023-08-24T09:41:38;102558.72;;;9.82;72.48
68855;BME280;69984;-43.570;172.580;2023-08-24T09:44:06;102561.75;;;9.62;73.68
68855;BME280;69984;-43.570;172.580;2023-08-24T09:46:37;102566.06;;;9.77;71.74
68855;BME280;69984;-43.570;172.580;2023-08-24T09:49:09;102560.50;;;9.68;72.00
68855;BME280;69984;-43.570;172.580;2023-08-24T09:51:39;102568.28;;;9.41;73.13
68855;BME280;69984;-43.570;172.580;2023-08-24T09:54:06;102573.69;;;9.52;73.05
68855;BME280;69984;-43.570;172.580;2023-08-24T09:56:41;102573.50;;;9.41;73.64
68855;BME280;69984;-43.570;172.580;2023-08-24T09:59:11;102574.53;;;9.38;73.55
68855;BME280;69984;-43.570;172.580;2023-08-24T10:01:45;102572.56;;;9.28;74.19
68855;BME280;69984;-43.570;172.580;2023-08-24T10:04:17;102571.94;;;9.81;72.66
68855;BME280;69984;-43.570;172.580;2023-08-24T10:06:48;102560.81;;;9.77;73.00
68855;BME280;69984;-43.570;172.580;2023-08-24T10:09:24;102566.78;;;9.79;72.35
68855;BME280;69984;-43.570;172.580;2023-08-24T10:11:56;102562.19;;;9.83;72.32
68855;BME280;69984;-43.570;172.580;2023-08-24T10:14:32;102562.00;;;9.43;72.75
68855;BME280;69984;-43.570;172.580;2023-08-24T10:17:02;102559.84;;;9.50;72.62
68855;BME280;69984;-43.570;172.580;2023-08-24T10:19:30;102571.28;;;9.49;71.03
68855;BME280;69984;-43.570;172.580;2023-08-24T10:22:00;102561.63;;;9.35;71.35
68855;BME280;69984;-43.570;172.580;2023-08-24T10:24:27;102563.34;;;9.07;71.72
68855;BME280;69984;-43.570;172.580;2023-08-24T10:26:55;102569.34;;;8.79;72.42
68855;BME280;69984;-43.570;172.580;2023-08-24T10:29:25;102563.53;;;8.74;72.50
68855;BME280;69984;-43.570;172.580;2023-08-24T10:31:54;102556.97;;;8.67;73.48
68855;BME280;69984;-43.570;172.580;2023-08-24T10:34:22;102561.69;;;8.60;73.82
68855;BME280;69984;-43.570;172.580;2023-08-24T10:36:49;102568.13;;;8.55;74.43
68855;BME280;69984;-43.570;172.580;2023-08-24T10:39:18;102562.31;;;8.49;74.81
68855;BME280;69984;-43.570;172.580;2023-08-24T10:41:53;102563.16;;;8.50;74.94
68855;BME280;69984;-43.570;172.580;2023-08-24T10:44:44;102561.38;;;8.19;75.65
68855;BME280;69984;-43.570;172.580;2023-08-24T10:47:14;102561.94;;;8.56;75.52
68855;BME280;69984;-43.570;172.580;2023-08-24T10:49:42;102569.88;;;8.23;75.50
68855;BME280;69984;-43.570;172.580;2023-08-24T10:52:38;102560.28;;;8.55;74.73
68855;BME280;69984;-43.570;172.580;2023-08-24T10:55:25;102553.47;;;8.36;75.58
68855;BME280;69984;-43.570;172.580;2023-08-24T10:57:57;102557.19;;;8.32;75.12
68855;BME280;69984;-43.570;172.580;2023-08-24T11:00:27;102555.59;;;8.30;75.05
68855;BME280;69984;-43.570;172.580;2023-08-24T11:02:55;102558.28;;;8.44;74.30
68855;BME280;69984;-43.570;172.580;2023-08-24T11:05:28;102563.81;;;8.22;74.93
68855;BME280;69984;-43.570;172.580;2023-08-24T11:08:01;102571.34;;;8.28;75.11
68855;BME280;69984;-43.570;172.580;2023-08-24T11:10:46;102568.38;;;8.34;74.70
68855;BME280;69984;-43.570;172.580;2023-08-24T11:13:14;102561.31;;;8.36;74.62
68855;BME280;69984;-43.570;172.580;2023-08-24T11:15:49;102565.75;;;8.34;74.21
68855;BME280;69984;-43.570;172.580;2023-08-24T11:18:27;102566.59;;;8.19;75.02
68855;BME280;69984;-43.570;172.580;2023-08-24T11:20:56;102567.84;;;7.96;75.04
68855;BME280;69984;-43.570;172.580;2023-08-24T11:23:24;102560.69;;;7.84;75.65
68855;BME280;69984;-43.570;172.580;2023-08-24T11:25:54;102570.00;;;7.73;74.71
68855;BME280;69984;-43.570;172.580;2023-08-24T11:28:24;102566.59;;;7.71;74.90
68855;BME280;69984;-43.570;172.580;2023-08-24T11:30:52;102569.66;;;7.63;74.88
68855;BME280;69984;-43.570;172.580;2023-08-24T11:33:33;102568.59;;;7.83;74.75
68855;BME280;69984;-43.570;172.580;2023-08-24T11:36:03;102573.91;;;7.97;73.54
68855;BME280;69984;-43.570;172.580;2023-08-24T11:38:40;102564.13;;;7.52;74.59
68855;BME280;69984;-43.570;172.580;2023-08-24T11:43:39;102564.22;;;7.50;74.00
68855;BME280;69984;-43.570;172.580;2023-08-24T11:46:06;102573.03;;;7.48;73.97
68855;BME280;69984;-43.570;172.580;2023-08-24T11:48:33;102576.66;;;6.94;75.29
68855;BME280;69984;-43.570;172.580;2023-08-24T11:51:02;102577.56;;;6.76;76.26
68855;BME280;69984;-43.570;172.580;2023-08-24T11:53:30;102579.72;;;6.68;77.08
68855;BME280;69984;-43.570;172.580;2023-08-24T11:55:59;102574.56;;;6.66;77.71
68855;BME280;69984;-43.570;172.580;2023-08-24T11:58:28;102574.53;;;6.85;77.65
68855;BME280;69984;-43.570;172.580;2023-08-24T12:00:55;102580.44;;;7.06;76.16
68855;BME280;69984;-43.570;172.580;2023-08-24T12:03:22;102576.28;;;7.36;76.05
68855;BME280;69984;-43.570;172.580;2023-08-24T12:05:50;102568.69;;;7.48;75.42
68855;BME280;69984;-43.570;172.580;2023-08-24T12:08:17;102563.56;;;7.30;75.99
68855;BME280;69984;-43.570;172.580;2023-08-24T12:10:44;102564.72;;;7.24;74.45
68855;BME280;69984;-43.570;172.580;2023-08-24T12:13:12;102566.81;;;7.18;74.63
68855;BME280;69984;-43.570;172.580;2023-08-24T12:15:40;102566.31;;;7.27;73.50
68855;BME280;69984;-43.570;172.580;2023-08-24T12:18:09;102564.94;;;7.20;73.58
68855;BME280;69984;-43.570;172.580;2023-08-24T12:20:37;102563.63;;;7.28;74.00
68855;BME280;69984;-43.570;172.580;2023-08-24T12:23:05;102565.69;;;7.39;74.68
68855;BME280;69984;-43.570;172.580;2023-08-24T12:25:43;102562.53;;;7.32;74.44
68855;BME280;69984;-43.570;172.580;2023-08-24T12:28:14;102576.28;;;7.01;75.25
68855;BME280;69984;-43.570;172.580;2023-08-24T12:30:52;102581.88;;;7.28;75.76
68855;BME280;69984;-43.570;172.580;2023-08-24T12:33:27;102574.06;;;7.45;74.96
68855;BME280;69984;-43.570;172.580;2023-08-24T12:35:55;102577.06;;;7.03;76.65
68855;BME280;69984;-43.570;172.580;2023-08-24T12:38:24;102575.44;;;7.01;77.76
68855;BME280;69984;-43.570;172.580;2023-08-24T12:40:52;102570.69;;;7.26;75.39